Shelton, Connecticut
Current Conditions -  °F | °C
As of 10:52 AM on Friday 31 Oct 2014 (Local Time) from KBDR Reporting Station
Broken Clouds Broken Clouds  
Wind Chill: 11°   Ceiling: 5000
Heat Index: 11°   Visibility: 10mi
Dew Point:   Wind: 10mph
Humidity: 63%   Direction: 70°ENE
Pressure: 30"   Gusts: NA
Location:  41.32°N, 73.11°W
Report Text: KBDR 311452Z 07009KT 10SM BKN050 11/04 A3000 RMK AO2 SLP159 T01110044 58005
Loading
Personal Weather Stations






























Interactive Weather Map
Tropical Storm Tracking
New forecast layout! Learn more

10-Day Weather Forecast

Advertisements
Track Severe Weather on mobile